createdAt,value
2022-12-11T00:12:21.669Z,13.07
2022-12-11T00:41:10.511Z,13.08
2022-12-11T01:10:10.548Z,13.1
2022-12-11T01:39:07.947Z,13.08
2022-12-11T02:08:06.929Z,13.1
2022-12-11T02:36:58.865Z,13.1
2022-12-11T03:34:58.897Z,13.1
2022-12-11T04:03:26.128Z,13.1
2022-12-11T04:32:17.759Z,13.11
2022-12-11T06:28:20.214Z,12.99
2022-12-11T06:57:17.075Z,12.97
2022-12-11T07:26:13.233Z,12.93
2022-12-11T07:55:13.739Z,12.85
2022-12-11T08:23:56.299Z,12.84
2022-12-11T08:52:40.878Z,12.82
2022-12-11T09:21:32.379Z,12.78
2022-12-11T09:50:16.128Z,12.77
2022-12-11T10:19:07.631Z,12.79
2022-12-11T10:47:59.467Z,12.86
2022-12-11T11:16:44.694Z,12.83
2022-12-11T11:45:40.452Z,12.83
2022-12-11T12:42:53.494Z,12.92
2022-12-11T13:11:45.702Z,12.89
2022-12-11T13:40:34.201Z,12.9
2022-12-11T14:09:19.738Z,12.89
2022-12-11T14:38:09.707Z,12.87
2022-12-11T15:06:56.883Z,12.85
2022-12-11T15:35:40.243Z,12.82
2022-12-11T16:04:32.004Z,12.79
2022-12-11T16:33:21.483Z,12.77
2022-12-11T17:02:13.948Z,12.74
2022-12-11T17:30:44.211Z,12.73
2022-12-11T17:59:29.598Z,12.72
2022-12-11T18:27:54.098Z,12.7
2022-12-11T18:56:35.248Z,12.67
2022-12-11T19:25:22.131Z,12.66
2022-12-11T19:54:03.863Z,12.64
2022-12-11T20:22:50.056Z,12.63
2022-12-11T20:51:14.349Z,12.6
2022-12-11T21:19:50.536Z,12.6
2022-12-11T21:48:32.259Z,12.59
2022-12-11T22:17:13.609Z,12.59
2022-12-11T22:46:01.617Z,12.62
2022-12-11T23:14:24.019Z,12.65
2022-12-11T23:43:06.372Z,12.65
